Time;durP1;ratioP1;P1;durP2;ratioP2;P2;SDS_P1;SDS_P2;PMS_P1;PMS_P2;Temp;Humidity;BMP_temperature;BMP_pressure;BME280_temperature;BME280_humidity;BME280_pressure;Samples;Min_cycle;Max_cycle;Signal;HPM_P1;HPM_P2
2021/09/29 00:01:10;;;;;;;17.70;11.10;;;;;;;8.71;70.51;99034.38;4949893;29;20488;-80
2021/09/29 00:03:37;;;;;;;19.30;12.02;;;;;;;8.71;70.77;99030.84;4952524;29;20027;-82
2021/09/29 00:06:03;;;;;;;18.42;12.02;;;;;;;8.72;70.63;99027.81;4951641;28;20464;-78
2021/09/29 00:08:29;;;;;;;18.63;12.20;;;;;;;8.72;70.88;99029.75;4951237;29;20563;-82
2021/09/29 00:10:54;;;;;;;18.70;11.45;;;;;;;8.71;70.63;99028.91;4952072;29;20031;-82
2021/09/29 00:13:23;;;;;;;17.73;11.80;;;;;;;8.72;70.84;99022.34;4952513;29;20019;-80
2021/09/29 00:15:49;;;;;;;19.83;12.00;;;;;;;8.72;70.91;99022.34;4952207;29;20023;-79
2021/09/29 00:18:14;;;;;;;16.95;11.27;;;;;;;8.72;70.95;99024.28;4951781;29;20035;-79
2021/09/29 00:20:40;;;;;;;17.17;11.85;;;;;;;8.73;70.59;99024.00;4953058;29;20023;-81
2021/09/29 00:23:05;;;;;;;18.83;12.43;;;;;;;8.72;71.00;99014.16;4952788;29;20035;-78
2021/09/29 00:25:31;;;;;;;17.55;11.43;;;;;;;8.72;70.87;99018.81;4952076;29;20067;-85
2021/09/29 00:27:56;;;;;;;18.65;11.95;;;;;;;8.71;71.08;99019.91;4951166;29;20118;-80
2021/09/29 00:30:22;;;;;;;19.30;11.80;;;;;;;8.69;71.03;99025.63;4950984;29;20027;-82
2021/09/29 00:32:48;;;;;;;19.30;11.32;;;;;;;8.68;70.71;99012.25;4951153;29;20031;-83
2021/09/29 00:35:14;;;;;;;20.83;11.77;;;;;;;8.63;70.98;99011.13;4931556;29;20129;-83
2021/09/29 00:37:41;;;;;;;18.67;11.57;;;;;;;8.58;70.69;99008.38;4951526;29;20031;-83
2021/09/29 00:40:08;;;;;;;16.83;11.45;;;;;;;8.58;70.74;99011.13;4952326;29;20106;-82
2021/09/29 00:42:34;;;;;;;17.10;11.38;;;;;;;8.58;71.02;99016.59;4950996;29;20991;-81
2021/09/29 00:44:59;;;;;;;16.20;11.35;;;;;;;8.57;70.70;99004.00;4951463;29;20043;-81
2021/09/29 00:47:27;;;;;;;18.35;10.60;;;;;;;8.59;70.80;99014.66;4950383;29;20031;-80
2021/09/29 00:49:53;;;;;;;16.85;11.10;;;;;;;8.58;71.05;99018.47;4949184;29;20034;-81
2021/09/29 00:52:18;;;;;;;17.40;10.88;;;;;;;8.56;71.03;99007.81;4951002;29;20031;-81
2021/09/29 00:54:44;;;;;;;18.70;11.10;;;;;;;8.55;70.91;99006.19;4951565;29;20031;-81
2021/09/29 00:57:10;;;;;;;16.92;11.07;;;;;;;8.56;71.10;98998.81;4951356;29;20027;-80
2021/09/29 00:59:37;;;;;;;15.15;10.50;;;;;;;8.55;71.10;98997.97;4951515;29;20408;-81
2021/09/29 01:02:03;;;;;;;15.82;10.82;;;;;;;8.51;71.22;98994.13;4934663;29;20467;-83
2021/09/29 01:04:30;;;;;;;15.70;10.90;;;;;;;8.51;70.95;98991.41;4951832;29;20027;-82
2021/09/29 01:07:01;;;;;;;15.07;10.77;;;;;;;8.49;71.11;98991.69;4951394;29;20035;-83
2021/09/29 01:09:44;;;;;;;17.85;10.82;;;;;;;8.46;70.92;98994.09;4951699;29;20027;-82
2021/09/29 01:12:39;;;;;;;16.15;10.75;;;;;;;8.41;71.06;98978.50;4950772;29;20039;-83
2021/09/29 01:15:19;;;;;;;15.48;10.55;;;;;;;8.33;70.79;98982.59;4951203;29;20499;-83
2021/09/29 01:17:51;;;;;;;15.90;10.88;;;;;;;8.26;70.53;98987.47;4948533;28;20106;-82
2021/09/29 01:20:28;;;;;;;16.90;11.77;;;;;;;8.23;70.47;98984.44;4949899;29;20050;-83
2021/09/29 01:23:06;;;;;;;19.10;13.50;;;;;;;8.17;71.05;98981.69;4950139;29;20082;-82
2021/09/29 01:25:57;;;;;;;21.23;13.55;;;;;;;8.15;70.99;98980.31;4949782;29;20041;-82
2021/09/29 01:28:33;;;;;;;21.65;14.80;;;;;;;8.08;70.70;98977.84;4949590;29;20035;-79
2021/09/29 01:30:59;;;;;;;23.00;15.30;;;;;;;8.00;71.18;98973.69;4951100;29;20023;-79
2021/09/29 01:33:27;;;;;;;26.88;18.05;;;;;;;7.95;70.97;98975.59;4951472;29;20023;-79
2021/09/29 01:35:53;;;;;;;24.30;16.90;;;;;;;7.86;70.93;98981.56;4950504;29;20043;-79
2021/09/29 01:38:19;;;;;;;19.52;14.50;;;;;;;7.81;70.71;98972.53;4950835;29;20035;-79
2021/09/29 01:40:45;;;;;;;20.58;14.43;;;;;;;7.75;70.53;98969.78;4949684;29;20479;-79
2021/09/29 01:43:10;;;;;;;22.50;14.25;;;;;;;7.73;70.91;98968.41;4951544;29;20391;-79
2021/09/29 01:45:36;;;;;;;21.15;14.15;;;;;;;7.71;70.91;98965.94;4951495;29;20031;-79
2021/09/29 01:48:02;;;;;;;21.95;14.40;;;;;;;7.70;70.88;98963.47;4950879;29;20102;-79
2021/09/29 01:50:30;;;;;;;21.15;13.98;;;;;;;7.67;70.40;98962.06;4950893;29;20424;-79
2021/09/29 01:52:58;;;;;;;22.42;14.40;;;;;;;7.65;70.47;98956.06;4950679;29;20033;-79
2021/09/29 01:55:25;;;;;;;19.05;12.60;;;;;;;7.63;70.85;98955.50;4949417;29;20027;-79
2021/09/29 01:57:52;;;;;;;19.95;12.20;;;;;;;7.63;70.96;98960.97;4948915;29;20070;-78
2021/09/29 02:00:18;;;;;;;16.67;11.45;;;;;;;7.64;71.22;98954.41;4941993;29;20019;-79
2021/09/29 02:02:45;;;;;;;18.48;12.18;;;;;;;7.58;71.16;98950.00;4949368;29;20019;-78
2021/09/29 02:05:11;;;;;;;16.45;11.50;;;;;;;7.58;71.40;98960.94;4949582;29;20038;-78
2021/09/29 02:07:39;;;;;;;17.38;11.45;;;;;;;7.57;71.10;98953.81;4949122;29;21214;-78
2021/09/29 02:10:06;;;;;;;16.08;11.25;;;;;;;7.53;70.91;98950.81;4949398;29;20034;-79
2021/09/29 02:12:32;;;;;;;14.90;10.75;;;;;;;7.53;71.24;98939.09;4949723;29;20026;-78
2021/09/29 02:14:57;;;;;;;18.40;10.77;;;;;;;7.54;71.47;98947.00;4950111;29;20632;-78
2021/09/29 02:17:23;;;;;;;15.80;10.68;;;;;;;7.59;71.54;98946.19;4933666;29;20126;-78
2021/09/29 02:19:49;;;;;;;14.57;10.10;;;;;;;7.57;71.39;98953.81;4953324;29;20027;-78
2021/09/29 02:22:16;;;;;;;16.48;11.10;;;;;;;7.55;71.73;98951.38;4952822;29;20139;-78
2021/09/29 02:24:44;;;;;;;18.45;11.30;;;;;;;7.52;71.18;98957.34;4951784;29;20368;-79
2021/09/29 02:27:10;;;;;;;14.55;10.52;;;;;;;7.46;71.17;98950.22;4950812;29;20082;-79
2021/09/29 02:29:35;;;;;;;18.15;11.60;;;;;;;7.42;71.46;98949.09;4950288;28;20035;-79
2021/09/29 02:32:01;;;;;;;14.73;11.10;;;;;;;7.42;71.24;98951.81;4953948;29;20039;-79
2021/09/29 02:34:26;;;;;;;18.25;11.77;;;;;;;7.39;71.38;98938.72;4954947;29;20166;-79
2021/09/29 02:36:52;;;;;;;17.92;11.02;;;;;;;7.40;71.51;98952.09;4954435;29;20035;-79
2021/09/29 02:39:17;;;;;;;16.25;10.93;;;;;;;7.41;71.97;98942.84;4953741;29;20112;-79
2021/09/29 02:41:43;;;;;;;16.52;11.07;;;;;;;7.42;71.65;98939.03;4954333;29;20032;-78
2021/09/29 02:44:09;;;;;;;16.17;10.15;;;;;;;7.41;71.47;98942.00;4954863;29;20035;-78
2021/09/29 02:46:40;;;;;;;19.60;10.95;;;;;;;7.40;71.85;98937.63;4954525;29;20106;-78
2021/09/29 02:49:07;;;;;;;16.77;10.52;;;;;;;7.40;71.64;98934.91;4954395;29;20035;-78
2021/09/29 02:51:32;;;;;;;14.60;10.20;;;;;;;7.41;71.78;98942.84;4954037;29;20154;-78
2021/09/29 02:53:58;;;;;;;16.52;10.55;;;;;;;7.41;71.69;98934.66;4937255;29;20122;-78
2021/09/29 02:56:25;;;;;;;16.85;10.50;;;;;;;7.42;71.77;98927.25;4954278;29;20035;-78
2021/09/29 02:58:51;;;;;;;15.20;10.68;;;;;;;7.43;71.89;98927.03;4954437;29;20066;-79
2021/09/29 03:01:16;;;;;;;15.15;9.77;;;;;;;7.45;71.80;98930.31;4954296;29;20516;-79
2021/09/29 03:03:42;;;;;;;14.07;9.98;;;;;;;7.47;71.67;98934.69;4954435;29;20024;-79
2021/09/29 03:06:07;;;;;;;17.95;11.05;;;;;;;7.45;72.08;98924.84;4954092;29;20043;-79
2021/09/29 03:08:32;;;;;;;14.63;9.88;;;;;;;7.42;71.97;98919.06;4953860;29;20043;-79
2021/09/29 03:10:58;;;;;;;17.15;10.50;;;;;;;7.39;71.82;98917.72;4953593;29;20422;-79
2021/09/29 03:13:23;;;;;;;16.63;11.27;;;;;;;7.35;72.20;98915.75;4951603;29;20487;-80
2021/09/29 03:15:49;;;;;;;14.65;10.48;;;;;;;7.36;71.91;98917.41;4954054;29;20034;-79
2021/09/29 03:18:15;;;;;;;17.50;10.23;;;;;;;7.36;72.23;98920.13;4953469;29;20083;-80
2021/09/29 03:20:41;;;;;;;14.60;9.82;;;;;;;7.34;72.10;98912.22;4953883;29;20078;-80
2021/09/29 03:23:07;;;;;;;16.25;10.48;;;;;;;7.33;71.88;98904.31;4953908;29;20035;-79
2021/09/29 03:25:32;;;;;;;15.82;10.75;;;;;;;7.30;72.25;98914.66;4954181;29;20082;-80
2021/09/29 03:27:58;;;;;;;16.73;10.68;;;;;;;7.30;72.08;98911.94;4935898;29;20047;-79
2021/09/29 03:30:24;;;;;;;15.60;10.23;;;;;;;7.32;72.00;98911.66;4951533;29;20023;-79
2021/09/29 03:32:49;;;;;;;18.00;10.60;;;;;;;7.33;72.20;98913.31;4955461;29;20590;-79
2021/09/29 03:35:15;;;;;;;16.05;10.60;;;;;;;7.34;72.45;98914.94;4955272;29;20034;-79
2021/09/29 03:37:41;;;;;;;16.63;10.35;;;;;;;7.35;71.93;98913.03;4954451;29;20035;-79
2021/09/29 03:40:09;;;;;;;17.67;10.27;;;;;;;7.35;72.01;98908.41;4954243;29;20035;-79
2021/09/29 03:42:35;;;;;;;15.43;9.88;;;;;;;7.30;71.79;98908.38;4954471;28;20039;-79
2021/09/29 03:45:02;;;;;;;15.00;10.02;;;;;;;7.25;71.60;98903.72;4954898;29;20372;-79
2021/09/29 03:47:27;;;;;;;15.38;10.10;;;;;;;7.21;71.88;98901.75;4953985;29;20036;-79
2021/09/29 03:49:53;;;;;;;13.23;9.68;;;;;;;7.20;71.96;98897.38;4954643;29;20040;-80
2021/09/29 03:52:18;;;;;;;17.58;10.50;;;;;;;7.17;71.97;98898.75;4954303;29;20042;-79
2021/09/29 03:54:44;;;;;;;13.63;9.90;;;;;;;7.18;71.88;98896.81;4954849;29;20872;-79
2021/09/29 03:57:09;;;;;;;15.68;10.30;;;;;;;7.13;71.94;98898.44;4954473;29;20042;-80
2021/09/29 03:59:34;;;;;;;16.15;10.70;;;;;;;7.15;71.75;98898.19;4954550;29;20489;-80
2021/09/29 04:02:00;;;;;;;12.75;9.75;;;;;;;7.09;71.78;98897.34;4954458;29;20038;-79
2021/09/29 04:04:26;;;;;;;15.05;9.95;;;;;;;7.07;71.86;98904.97;4934473;29;20054;-80
2021/09/29 04:06:52;;;;;;;14.73;10.27;;;;;;;7.06;71.60;98897.88;4937671;29;20472;-80
2021/09/29 04:09:17;;;;;;;13.73;9.77;;;;;;;7.04;71.74;98891.84;4954632;29;20035;-80
2021/09/29 04:11:43;;;;;;;12.85;10.02;;;;;;;7.04;71.69;98901.94;4954232;29;20126;-79
2021/09/29 04:14:08;;;;;;;14.88;10.07;;;;;;;6.99;71.80;98900.81;4954548;29;20094;-80
2021/09/29 04:16:34;;;;;;;14.52;10.43;;;;;;;6.94;71.70;98903.47;4954159;29;20372;-78
2021/09/29 04:19:00;;;;;;;17.88;10.70;;;;;;;6.93;71.84;98903.75;4953981;29;20408;-79
2021/09/29 04:21:26;;;;;;;16.63;11.13;;;;;;;6.89;71.88;98902.63;4952431;29;20094;-78
2021/09/29 04:23:52;;;;;;;16.90;10.90;;;;;;;6.84;71.71;98895.25;4954375;29;20102;-78
2021/09/29 04:26:18;;;;;;;14.68;11.35;;;;;;;6.83;71.71;98897.13;4953903;29;20028;-79
2021/09/29 04:28:43;;;;;;;16.05;10.73;;;;;;;6.80;71.78;98905.03;4953844;29;20039;-79
2021/09/29 04:31:09;;;;;;;17.83;11.63;;;;;;;6.76;71.61;98898.44;4951738;29;20063;-80
2021/09/29 04:33:34;;;;;;;19.35;12.13;;;;;;;6.75;71.88;98891.34;4948178;29;20091;-80
2021/09/29 04:36:00;;;;;;;16.40;11.07;;;;;;;6.74;71.42;98893.25;4953156;29;20031;-79
2021/09/29 04:38:26;;;;;;;16.73;11.32;;;;;;;6.74;71.80;98895.16;4953354;29;20063;-79
2021/09/29 04:40:51;;;;;;;20.00;11.05;;;;;;;6.74;71.71;98900.63;4954059;29;20059;-79
2021/09/29 04:43:17;;;;;;;16.30;11.73;;;;;;;6.72;71.49;98902.78;4953202;29;20090;-78
2021/09/29 04:45:42;;;;;;;18.27;12.32;;;;;;;6.72;72.06;98903.63;4953640;29;20118;-78
2021/09/29 04:48:08;;;;;;;28.50;18.88;;;;;;;6.69;71.93;98894.03;4953597;29;20031;-73
2021/09/29 04:50:35;;;;;;;22.20;15.52;;;;;;;6.66;71.81;98902.72;4952156;29;20490;-73
2021/09/29 04:53:01;;;;;;;24.92;16.27;;;;;;;6.69;71.77;98904.94;4950975;28;20019;-73
2021/09/29 04:55:30;;;;;;;24.20;16.10;;;;;;;6.77;72.34;98917.25;4950120;29;20035;-73
2021/09/29 04:57:55;;;;;;;23.83;14.73;;;;;;;6.78;72.38;98907.19;4933265;29;20464;-74
2021/09/29 05:00:21;;;;;;;21.10;14.02;;;;;;;6.80;72.25;98908.56;4952070;29;20034;-74
2021/09/29 05:02:48;;;;;;;24.42;14.65;;;;;;;6.82;72.30;98917.31;4951040;29;20035;-73
2021/09/29 05:05:14;;;;;;;23.73;15.20;;;;;;;6.86;72.89;98909.44;4953303;29;20066;-73
2021/09/29 05:07:41;;;;;;;25.30;16.63;;;;;;;6.93;72.68;98911.94;4951442;29;20130;-72
2021/09/29 05:10:14;;;;;;;27.27;17.05;;;;;;;7.00;72.92;98910.63;4953236;29;20031;-73
2021/09/29 05:12:39;;;;;;;29.52;18.02;;;;;;;7.09;73.15;98916.44;4949413;29;20476;-73
2021/09/29 05:15:06;;;;;;;24.88;18.23;;;;;;;7.21;73.22;98915.41;4953281;29;20127;-73
2021/09/29 05:17:31;;;;;;;24.52;17.23;;;;;;;7.30;73.01;98916.56;4952705;29;20043;-73
2021/09/29 05:19:56;;;;;;;23.70;16.63;;;;;;;7.42;73.41;98914.47;4953112;29;20062;-74
2021/09/29 05:22:22;;;;;;;21.83;15.68;;;;;;;7.54;73.04;98919.69;4952487;29;20127;-74
2021/09/29 05:24:48;;;;;;;22.85;15.15;;;;;;;7.64;73.25;98915.38;4953388;29;20066;-74
2021/09/29 05:27:13;;;;;;;23.58;14.98;;;;;;;7.73;73.47;98911.06;4952549;29;20035;-74
2021/09/29 05:29:41;;;;;;;20.52;13.27;;;;;;;7.81;72.97;98912.47;4952601;29;20464;-74
2021/09/29 05:32:07;;;;;;;21.42;15.23;;;;;;;7.85;73.32;98916.31;4951850;29;20042;-74
2021/09/29 05:34:34;;;;;;;24.58;15.90;;;;;;;7.87;73.37;98914.13;4952014;29;20443;-73
2021/09/29 05:36:59;;;;;;;30.00;19.10;;;;;;;7.92;73.54;98913.31;4952756;29;20046;-74
2021/09/29 05:39:25;;;;;;;31.52;19.85;;;;;;;7.98;73.48;98917.72;4952324;29;20027;-72
2021/09/29 05:41:51;;;;;;;30.70;19.75;;;;;;;8.00;73.79;98916.34;4952922;29;20130;-74
2021/09/29 05:44:16;;;;;;;30.52;19.40;;;;;;;8.04;73.40;98922.91;4953388;29;20031;-74
2021/09/29 05:46:41;;;;;;;30.25;18.60;;;;;;;8.06;73.63;98919.94;4952490;29;20023;-74
2021/09/29 05:49:07;;;;;;;27.80;19.00;;;;;;;8.07;73.89;98921.56;4952153;29;20070;-75
2021/09/29 05:51:32;;;;;;;30.70;18.33;;;;;;;8.05;73.91;98918.28;4952081;29;20344;-73
2021/09/29 05:53:58;;;;;;;32.47;19.23;;;;;;;8.02;73.81;98922.34;4952057;29;20035;-75
2021/09/29 05:56:24;;;;;;;30.00;19.42;;;;;;;8.00;74.72;98918.25;4935150;29;20082;-74
2021/09/29 05:58:49;;;;;;;32.85;19.23;;;;;;;8.01;74.11;98920.72;4952244;29;20031;-74
2021/09/29 06:01:14;;;;;;;29.65;18.50;;;;;;;7.95;73.92;98919.06;4944797;29;20059;-73
2021/09/29 06:03:40;;;;;;;30.92;18.55;;;;;;;7.90;74.10;98914.41;4950398;29;20032;-74
2021/09/29 06:06:05;;;;;;;31.05;18.20;;;;;;;7.94;74.97;98913.88;4955599;28;20046;-75
2021/09/29 06:08:31;;;;;;;26.83;16.23;;;;;;;7.88;74.19;98913.03;4938079;29;20055;-74
2021/09/29 06:11:00;;;;;;;33.92;19.10;;;;;;;7.89;74.64;98901.84;4938170;29;20035;-75
2021/09/29 06:13:26;;;;;;;32.38;17.13;;;;;;;7.92;74.78;98913.31;4955700;29;20483;-74
2021/09/29 06:15:51;;;;;;;34.85;20.70;;;;;;;7.93;75.27;98920.41;4955527;29;20816;-75
2021/09/29 06:18:17;;;;;;;34.05;19.58;;;;;;;7.96;74.58;98920.69;4955599;29;20027;-74
2021/09/29 06:20:51;;;;;;;43.50;21.55;;;;;;;7.99;74.79;98920.16;4954979;29;20490;-74
2021/09/29 06:23:19;;;;;;;34.00;19.20;;;;;;;8.01;75.01;98917.97;4955551;29;20062;-75
2021/09/29 06:25:45;;;;;;;38.72;22.38;;;;;;;8.02;75.22;98919.63;4955409;29;20024;-75
2021/09/29 06:28:11;;;;;;;34.75;20.58;;;;;;;8.10;75.39;98922.94;4955387;29;20042;-75
2021/09/29 06:30:37;;;;;;;38.22;22.55;;;;;;;8.13;75.37;98928.69;4954848;29;20468;-74
2021/09/29 06:33:02;;;;;;;43.55;23.25;;;;;;;8.20;74.89;98926.50;4955221;29;20141;-75
2021/09/29 06:35:31;;;;;;;43.22;23.88;;;;;;;8.28;75.28;98922.44;4955622;29;20035;-77
2021/09/29 06:37:58;;;;;;;39.75;23.45;;;;;;;8.37;75.45;98924.63;4954488;29;20031;-76
2021/09/29 06:40:24;;;;;;;41.78;23.92;;;;;;;8.43;74.72;98924.41;4951969;29;20062;-76
2021/09/29 06:42:50;;;;;;;42.17;25.90;;;;;;;8.56;75.15;98928.53;4954302;29;20031;-75
2021/09/29 06:45:16;;;;;;;39.88;23.42;;;;;;;8.64;75.05;98930.75;4955361;29;20039;-74
2021/09/29 06:47:45;;;;;;;37.75;23.67;;;;;;;8.69;75.23;98932.66;4954331;29;20426;-75
2021/09/29 06:50:12;;;;;;;42.25;25.90;;;;;;;8.75;75.18;98934.28;4955363;29;20435;-75
2021/09/29 06:52:38;;;;;;;45.33;28.48;;;;;;;8.82;75.17;98935.94;4953867;29;20102;-75
2021/09/29 06:55:05;;;;;;;43.05;27.10;;;;;;;8.87;74.95;98934.03;4954995;29;20098;-76
2021/09/29 06:57:31;;;;;;;36.17;23.58;;;;;;;8.99;75.16;98935.66;4954815;29;20031;-73
2021/09/29 06:59:56;;;;;;;36.35;23.70;;;;;;;9.08;75.10;98940.31;4954520;29;20600;-75
2021/09/29 07:02:22;;;;;;;33.08;19.23;;;;;;;9.17;74.54;98940.56;4953843;29;20158;-74
2021/09/29 07:04:47;;;;;;;33.65;21.20;;;;;;;9.17;74.08;98940.56;4950788;29;20039;-74
2021/09/29 07:07:13;;;;;;;31.85;21.30;;;;;;;9.16;74.47;98936.22;4953845;29;20043;-75
2021/09/29 07:09:38;;;;;;;34.53;20.95;;;;;;;9.08;74.03;98940.31;4954864;29;20027;-75
2021/09/29 07:12:06;;;;;;;46.97;24.33;;;;;;;9.05;74.25;98938.13;4954760;29;20027;-74
2021/09/29 07:14:33;;;;;;;45.13;24.48;;;;;;;9.04;74.48;98932.94;4954748;29;20031;-74
2021/09/29 07:17:00;;;;;;;50.65;26.58;;;;;;;9.09;74.53;98938.41;4952137;28;20035;-74
2021/09/29 07:19:26;;;;;;;46.15;26.38;;;;;;;9.16;74.58;98941.69;4936875;29;20019;-75
2021/09/29 07:21:51;;;;;;;42.15;26.20;;;;;;;9.27;74.89;98939.75;4953341;29;20451;-74
2021/09/29 07:24:17;;;;;;;42.42;26.80;;;;;;;9.34;74.79;98942.22;4936110;29;20038;-75
2021/09/29 07:26:43;;;;;;;31.33;21.73;;;;;;;9.38;74.00;98938.63;4952968;29;20019;-74
2021/09/29 07:29:10;;;;;;;36.65;24.88;;;;;;;9.45;74.08;98940.25;4953453;29;20038;-74
2021/09/29 07:31:36;;;;;;;32.22;21.23;;;;;;;9.58;74.33;98931.47;4952394;29;20030;-76
2021/09/29 07:34:02;;;;;;;32.85;21.58;;;;;;;9.69;74.93;98932.25;4953029;29;20305;-76
2021/09/29 07:36:28;;;;;;;32.38;20.25;;;;;;;9.75;74.44;98927.59;4952841;29;20035;-76
2021/09/29 07:38:53;;;;;;;32.78;21.17;;;;;;;9.86;74.65;98918.22;4953025;29;20130;-76
2021/09/29 07:41:18;;;;;;;34.05;22.42;;;;;;;9.99;74.05;98916.81;4953269;29;20110;-75
2021/09/29 07:43:44;;;;;;;36.80;22.45;;;;;;;10.07;73.89;98913.47;4952871;29;20031;-75
2021/09/29 07:46:09;;;;;;;37.25;22.65;;;;;;;10.16;74.34;98913.72;4953589;29;20452;-74
2021/09/29 07:48:35;;;;;;;30.23;19.27;;;;;;;10.23;73.58;98913.41;4953203;29;20026;-75
2021/09/29 07:51:01;;;;;;;174.13;73.28;;;;;;;10.21;73.79;98908.19;4952530;29;20098;-76
2021/09/29 07:53:27;;;;;;;52.13;28.35;;;;;;;10.20;73.00;98912.03;4950949;29;20087;-76
2021/09/29 07:55:53;;;;;;;34.78;21.08;;;;;;;10.06;72.94;98913.78;4953711;29;20472;-72
2021/09/29 07:58:24;;;;;;;62.83;33.75;;;;;;;9.88;72.86;98912.50;4953870;29;20023;-73
2021/09/29 08:00:50;;;;;;;74.47;38.55;;;;;;;9.83;72.99;98921.53;4953451;29;20066;-73
2021/09/29 08:03:15;;;;;;;59.10;31.75;;;;;;;9.77;72.85;98914.47;4954065;29;20034;-73
2021/09/29 08:05:41;;;;;;;49.03;27.20;;;;;;;9.73;73.75;98921.59;4953418;29;20035;-74
2021/09/29 08:08:07;;;;;;;83.30;51.78;;;;;;;9.73;73.13;98916.13;4953785;29;20519;-74
2021/09/29 08:10:32;;;;;;;74.00;53.35;;;;;;;9.72;73.79;98920.75;4936611;29;20460;-74
2021/09/29 08:12:58;;;;;;;34.90;22.50;;;;;;;9.77;73.66;98918.00;4950222;29;20027;-74
2021/09/29 08:15:24;;;;;;;33.25;20.77;;;;;;;9.77;73.77;98925.41;4935819;29;20131;-74
2021/09/29 08:17:50;;;;;;;31.60;19.83;;;;;;;9.87;73.47;98922.59;4951545;29;20027;-73
2021/09/29 08:20:19;;;;;;;34.92;21.60;;;;;;;9.91;73.36;98918.22;4936768;29;20364;-74
2021/09/29 08:22:47;;;;;;;32.95;20.73;;;;;;;10.02;73.65;98920.91;4952216;29;20031;-74
2021/09/29 08:28:29;;;;;;;33.75;20.33;;;;;;;10.30;73.80;98913.91;4948725;28;20488;-68
2021/09/29 08:31:27;;;;;;;35.75;22.30;;;;;;;10.39;73.19;98914.16;4937120;29;20067;-68
2021/09/29 08:33:31;;;;;;;31.08;18.63;;;;;;;10.40;73.55;98908.38;4937814;29;20487;-68
2021/09/29 08:36:17;;;;;;;39.63;22.17;;;;;;;10.39;73.17;98914.97;4952952;29;20472;-68
2021/09/29 08:38:54;;;;;;;38.63;21.80;;;;;;;10.52;73.40;98908.06;4943745;29;20126;-68
2021/09/29 08:44:07;;;;;;;30.95;18.52;;;;;;;10.81;72.72;98923.75;4951268;28;20074;-69
2021/09/29 08:49:31;;;;;;;33.47;21.02;;;;;;;10.82;72.83;98913.56;4948487;29;20065;-68
2021/09/29 08:52:18;;;;;;;35.15;21.52;;;;;;;10.77;72.39;98908.16;4934448;29;20054;-69
2021/09/29 09:16:47;;;;;;;36.53;22.33;;;;;;;11.54;72.54;98909.34;4950181;29;20600;-69
2021/09/29 09:19:14;;;;;;;35.72;21.48;;;;;;;11.67;71.97;98907.81;4949157;29;20043;-68
2021/09/29 09:22:02;;;;;;;33.17;20.67;;;;;;;11.79;71.82;98905.50;4950879;28;20027;-67
2021/09/29 09:24:33;;;;;;;34.45;21.20;;;;;;;11.88;71.55;98911.97;4949398;29;20038;-67
2021/09/29 09:27:10;;;;;;;30.60;19.75;;;;;;;12.05;71.36;98902.44;4950890;29;20118;-67
2021/09/29 09:29:52;;;;;;;34.55;19.50;;;;;;;12.21;71.26;98895.63;4948396;29;20497;-68
2021/09/29 09:32:22;;;;;;;39.70;21.55;;;;;;;12.42;71.58;98894.53;4950986;29;20035;-68
2021/09/29 09:34:59;;;;;;;36.72;22.48;;;;;;;12.61;71.23;98909.09;4950217;29;20031;-67
2021/09/29 09:37:30;;;;;;;40.50;23.52;;;;;;;12.76;70.78;98902.53;4950396;29;20126;-67
2021/09/29 09:40:08;;;;;;;37.42;22.77;;;;;;;12.90;70.53;98910.84;4953719;28;20049;-66
2021/09/29 09:42:41;;;;;;;39.47;22.67;;;;;;;13.03;70.31;98909.25;4956336;29;20027;-68
2021/09/29 09:45:08;;;;;;;36.17;21.80;;;;;;;13.03;69.63;98916.69;4953837;28;20504;-68
2021/09/29 09:47:44;;;;;;;38.10;23.52;;;;;;;13.06;69.63;98905.88;4950877;29;20403;-68
2021/09/29 09:50:11;;;;;;;39.55;24.15;;;;;;;13.13;69.17;98912.94;4956955;29;20454;-68
2021/09/29 09:52:44;;;;;;;41.92;24.55;;;;;;;13.26;68.68;98903.88;4954514;29;20024;-68
2021/09/29 09:55:12;;;;;;;37.90;23.08;;;;;;;13.38;69.14;98906.16;4940401;29;20035;-68
2021/09/29 09:57:42;;;;;;;35.55;23.40;;;;;;;13.49;68.80;98899.34;4939896;29;20035;-68
2021/09/29 10:00:15;;;;;;;37.08;22.83;;;;;;;13.59;68.63;98897.53;4957252;29;20031;-69
2021/09/29 10:02:45;;;;;;;37.05;22.95;;;;;;;13.65;68.18;98888.84;4955911;29;20027;-68
2021/09/29 10:05:13;;;;;;;41.25;23.17;;;;;;;13.70;68.45;98885.19;4953177;28;20105;-68
2021/09/29 10:07:39;;;;;;;43.53;25.70;;;;;;;13.82;67.54;98884.66;4957035;29;20087;-68
2021/09/29 10:10:22;;;;;;;40.25;25.92;;;;;;;13.92;67.81;98881.69;4955725;29;20036;-68
2021/09/29 10:26:25;;;;;;;38.90;23.35;;;;;;;14.50;67.02;98876.53;4956616;28;20488;-69
2021/09/29 10:29:05;;;;;;;36.15;23.98;;;;;;;14.61;66.82;98873.53;4956513;29;20498;-68
2021/09/29 10:34:17;;;;;;;38.92;25.80;;;;;;;14.81;65.74;98869.50;4957057;29;20050;-68
2021/09/29 11:29:46;;;;;;;35.63;22.85;;;;;;;16.47;62.46;98846.34;4949138;29;20046;-67
2021/09/29 11:34:48;;;;;;;31.23;22.15;;;;;;;16.59;61.84;98849.22;4948767;29;20035;-67
2021/09/29 11:37:37;;;;;;;35.15;22.42;;;;;;;16.72;62.41;98849.41;4949393;29;20035;-67
2021/09/29 12:10:24;;;;;;;30.60;21.63;;;;;;;17.22;60.03;98834.97;4948941;29;20492;-66
2021/09/29 12:12:52;;;;;;;38.70;23.35;;;;;;;17.10;60.18;98835.66;4918185;29;20023;-73
2021/09/29 12:15:17;;;;;;;34.47;23.25;;;;;;;17.06;60.16;98844.97;4932744;29;20023;-73
2021/09/29 12:17:45;;;;;;;35.65;21.27;;;;;;;17.02;59.82;98838.44;4950660;29;20038;-73
2021/09/29 12:20:47;;;;;;;38.00;24.40;;;;;;;17.00;60.01;98840.72;4948825;29;20035;-73
2021/09/29 12:23:07;;;;;;;37.55;24.25;;;;;;;17.09;60.52;98834.03;4950766;29;20054;-74
2021/09/29 12:28:57;;;;;;;34.88;22.85;;;;;;;17.13;60.50;98834.19;4952337;29;20043;-73
2021/09/29 12:31:30;;;;;;;36.75;22.90;;;;;;;16.97;60.43;98836.66;4942198;29;20070;-73
2021/09/29 12:34:16;;;;;;;43.10;25.08;;;;;;;16.89;60.32;98838.31;4949586;29;20098;-75
2021/09/29 12:36:42;;;;;;;31.55;22.05;;;;;;;16.89;60.79;98835.53;4950435;29;20525;-75
2021/09/29 12:39:18;;;;;;;32.95;21.35;;;;;;;16.99;60.90;98842.69;4952867;29;20472;-74
2021/09/29 12:41:53;;;;;;;31.05;21.42;;;;;;;17.16;60.75;98844.59;4950968;29;20038;-76
2021/09/29 12:44:19;;;;;;;32.42;21.65;;;;;;;17.32;60.40;98836.56;4949298;29;20051;-75
2021/09/29 12:47:20;;;;;;;30.58;20.67;;;;;;;17.52;60.94;98835.00;4952094;29;20502;-75
2021/09/29 12:49:46;;;;;;;32.92;20.88;;;;;;;17.66;60.52;98836.75;4950103;29;20027;-73
2021/09/29 12:52:27;;;;;;;31.77;20.13;;;;;;;17.83;60.27;98830.28;4951826;29;20019;-73
2021/09/29 12:54:55;;;;;;;28.70;20.10;;;;;;;17.78;59.82;98836.81;4951782;29;20023;-75
2021/09/29 12:57:21;;;;;;;29.63;19.60;;;;;;;17.80;59.84;98840.06;4949777;29;20046;-74
2021/09/29 12:59:46;;;;;;;28.88;18.77;;;;;;;17.74;59.79;98838.63;4935293;29;20023;-74
2021/09/29 13:02:11;;;;;;;26.77;18.63;;;;;;;17.70;59.97;98832.16;4951588;29;20398;-74
2021/09/29 13:04:37;;;;;;;25.67;17.40;;;;;;;17.60;59.94;98832.53;4945111;29;20027;-75
2021/09/29 13:07:02;;;;;;;30.60;18.27;;;;;;;17.52;59.79;98837.78;4948966;29;20031;-74
2021/09/29 13:09:28;;;;;;;25.35;18.63;;;;;;;17.49;60.15;98838.44;4951529;29;20031;-75
2021/09/29 13:11:53;;;;;;;29.15;18.10;;;;;;;17.48;60.19;98839.59;4950780;29;20537;-75
2021/09/29 13:14:19;;;;;;;27.75;18.92;;;;;;;17.39;60.03;98842.41;4950268;28;20035;-74
2021/09/29 13:16:44;;;;;;;29.17;18.30;;;;;;;17.32;60.34;98841.31;4949614;29;20066;-75
2021/09/29 13:19:13;;;;;;;26.08;17.63;;;;;;;17.25;60.13;98844.56;4949783;29;20027;-76
2021/09/29 13:21:47;;;;;;;29.10;18.40;;;;;;;17.21;60.28;98843.59;4948216;29;20024;-75
2021/09/29 13:24:21;;;;;;;26.33;17.48;;;;;;;17.30;60.66;98844.41;4947450;29;20480;-75
2021/09/29 13:27:12;;;;;;;26.60;18.27;;;;;;;17.40;60.50;98835.72;4951202;28;20674;-76
2021/09/29 13:37:38;;;;;;;24.42;16.98;;;;;;;19.33;59.60;98815.88;4950595;29;20042;-75
2021/09/29 13:40:05;;;;;;;23.65;16.25;;;;;;;19.96;58.04;98817.53;4952605;29;20070;-75
2021/09/29 13:42:31;;;;;;;35.20;23.30;;;;;;;20.44;57.02;98819.69;4952170;29;20031;-76
2021/09/29 13:44:57;;;;;;;25.20;18.25;;;;;;;20.78;56.23;98809.94;4949392;29;20038;-74
2021/09/29 13:47:23;;;;;;;21.88;16.48;;;;;;;21.09;55.80;98804.78;4950654;29;20065;-75
2021/09/29 13:49:48;;;;;;;21.98;15.68;;;;;;;21.44;55.49;98811.63;4952907;29;20059;-73
2021/09/29 13:52:18;;;;;;;20.65;15.23;;;;;;;21.48;54.34;98818.09;4945949;29;20031;-73